Time;durP1;ratioP1;P1;durP2;ratioP2;P2;SDS_P1;SDS_P2;PMS_P1;PMS_P2;Temp;Humidity;BMP_temperature;BMP_pressure;BME280_temperature;BME280_humidity;BME280_pressure;Samples;Min_cycle;Max_cycle;Signal;HPM_P1;HPM_P2
2022/05/22 04:32:49;;;;;;;;;3.00;3.00;;;;;21.71;44.76;101210.78;5113565;27;45321;-68
2022/05/22 04:35:15;;;;;;;;;2.00;2.00;;;;;21.73;44.31;101206.06;5095936;27;45223;-68
2022/05/22 04:37:41;;;;;;;;;2.25;2.25;;;;;21.80;44.49;101220.91;5096342;27;45471;-72
2022/05/22 04:40:07;;;;;;;;;4.00;2.50;;;;;21.77;45.02;101216.63;5095335;27;45395;-70
2022/05/22 04:42:37;;;;;;;;;1.75;1.75;;;;;21.81;44.65;101225.38;5095930;27;45502;-70
2022/05/22 04:45:05;;;;;;;;;2.00;2.00;;;;;21.80;44.48;101234.56;5095753;27;45340;-71
2022/05/22 04:47:31;;;;;;;;;0.00;0.00;;;;;21.79;44.65;101221.91;5095539;27;45328;-72
2022/05/22 04:49:56;;;;;;;;;3.00;3.00;;;;;21.77;44.33;101223.94;5094559;27;45383;-70
2022/05/22 04:52:21;;;;;;;;;2.25;2.25;;;;;21.70;44.50;101223.56;5095829;27;45588;-69
2022/05/22 04:54:47;;;;;;;;;2.00;2.00;;;;;21.61;44.88;101216.16;5094603;27;45446;-70
2022/05/22 04:57:13;;;;;;;;;2.00;2.00;;;;;21.74;44.83;101232.38;5095518;27;45315;-70
2022/05/22 04:59:39;;;;;;;;;3.25;1.50;;;;;21.72;44.19;101239.81;5095682;27;45298;-69
2022/05/22 05:02:04;;;;;;;;;2.75;2.00;;;;;21.68;44.09;101231.03;5095400;27;46198;-70
2022/05/22 05:04:30;;;;;;;;;0.75;0.75;;;;;21.72;44.54;101237.94;5095730;27;45548;-68
2022/05/22 05:06:56;;;;;;;;;3.00;3.00;;;;;21.57;44.54;101214.69;5095860;27;45335;-68
2022/05/22 05:09:22;;;;;;;;;2.00;2.00;;;;;21.73;44.41;101241.56;5095371;27;45469;-69
2022/05/22 05:11:47;;;;;;;;;2.50;2.50;;;;;21.75;44.56;101237.72;5095139;27;45989;-68
2022/05/22 05:14:13;;;;;;;;;2.00;2.00;;;;;21.71;44.26;101224.44;5095601;27;45453;-70
2022/05/22 05:16:38;;;;;;;;;1.50;1.50;;;;;21.68;44.00;101216.53;5095810;27;45252;-68
2022/05/22 05:19:03;;;;;;;;;2.50;2.50;;;;;21.72;44.19;101229.75;5095391;27;45523;-69
2022/05/22 05:21:29;;;;;;;;;2.50;2.00;;;;;21.65;44.66;101217.66;5095400;27;45334;-68
2022/05/22 05:23:55;;;;;;;;;1.75;0.75;;;;;21.78;44.27;101234.69;5094137;27;45186;-68
2022/05/22 05:26:22;;;;;;;;;2.75;2.00;;;;;21.73;44.68;101230.63;5086203;27;45361;-69
2022/05/22 05:28:48;;;;;;;;;2.75;2.50;;;;;21.74;44.15;101229.63;5094952;27;45520;-68
2022/05/22 05:31:13;;;;;;;;;2.00;2.00;;;;;21.80;44.20;101238.16;5094819;27;45358;-68
2022/05/22 05:33:38;;;;;;;;;2.00;2.00;;;;;21.75;44.25;101234.09;5095129;27;45283;-69
2022/05/22 05:36:08;;;;;;;;;1.50;1.50;;;;;21.80;43.92;101243.63;5095715;27;45232;-68
2022/05/22 05:38:33;;;;;;;;;1.00;1.00;;;;;21.75;44.23;101239.56;5094968;27;45495;-68
2022/05/22 05:40:58;;;;;;;;;3.00;3.00;;;;;21.75;44.11;101239.56;5094737;27;46065;-68
2022/05/22 05:43:24;;;;;;;;;3.25;2.00;;;;;21.77;44.43;101249.38;5085255;27;45262;-68
2022/05/22 05:45:50;;;;;;;;;3.00;2.00;;;;;21.76;44.31;101250.34;5081677;27;45260;-71
2022/05/22 05:48:16;;;;;;;;;3.25;1.75;;;;;21.66;44.68;101232.16;5081238;27;45786;-70
2022/05/22 05:50:42;;;;;;;;;4.00;2.00;;;;;21.80;44.16;101254.53;5081400;27;45417;-69
2022/05/22 05:53:07;;;;;;;;;2.00;2.00;;;;;21.79;44.46;101246.47;5081205;27;45300;-70
2022/05/22 05:55:33;;;;;;;;;1.25;1.25;;;;;21.76;44.65;101236.72;5081421;27;45338;-70
2022/05/22 05:57:58;;;;;;;;;3.00;3.00;;;;;21.77;44.98;101237.59;5081031;27;45352;-69
2022/05/22 06:00:24;;;;;;;;;1.50;1.50;;;;;21.78;44.78;101228.38;5081274;27;46337;-69
2022/05/22 06:02:50;;;;;;;;;2.25;2.00;;;;;21.77;44.21;101218.47;5079447;28;45350;-69
2022/05/22 06:05:16;;;;;;;;;2.00;2.00;;;;;21.84;44.14;101219.69;5081422;27;45335;-70
2022/05/22 06:07:42;;;;;;;;;2.75;2.75;;;;;21.88;43.93;101215.66;5081038;27;45446;-70
2022/05/22 06:10:10;;;;;;;;;3.00;3.00;;;;;21.80;44.15;101201.81;5079047;28;47276;-71
2022/05/22 06:12:35;;;;;;;;;2.00;2.00;;;;;;;;5080830;28;45293;-70
2022/05/22 06:15:01;;;;;;;;;2.50;2.50;;;;;21.94;43.90;101209.72;5081292;27;45223;-69
2022/05/22 06:17:39;;;;;;;;;2.00;2.00;;;;;21.97;44.45;101208.56;5096384;27;45454;-70
2022/05/22 06:20:07;;;;;;;;;2.00;2.00;;;;;22.01;44.12;101188.22;5080761;27;45380;-69
2022/05/22 06:22:34;;;;;;;;;3.00;3.00;;;;;22.04;43.41;101179.75;5080970;27;45278;-71
2022/05/22 06:25:11;;;;;;;;;2.25;2.25;;;;;22.04;43.56;101177.88;5080570;27;45327;-71
2022/05/22 06:27:36;;;;;;;;;3.00;1.50;;;;;22.10;43.74;101179.25;5068693;28;45365;-72
2022/05/22 06:30:03;;;;;;;;;3.50;1.75;;;;;22.12;43.56;101180.81;5080487;27;45405;-72
2022/05/22 06:32:28;;;;;;;;;5.00;3.00;;;;;22.10;43.74;101169.19;5080546;27;45500;-72
2022/05/22 06:34:56;;;;;;;;;1.25;1.25;;;;;22.10;43.55;101152.81;5080723;27;45433;-71
2022/05/22 06:37:22;;;;;;;;;3.00;2.00;;;;;22.21;43.35;101155.44;5080691;27;45483;-69
2022/05/22 06:39:51;;;;;;;;;4.25;3.25;;;;;22.16;43.34;101148.66;5080044;27;46119;-70
2022/05/22 06:42:23;;;;;;;;;4.00;3.25;;;;;22.18;43.21;101136.59;5080510;27;45331;-70
2022/05/22 06:45:14;;;;;;;;;1.75;1.75;;;;;22.18;43.03;101139.34;5080493;28;45345;-71
2022/05/22 06:47:42;;;;;;;;;2.00;2.00;;;;;22.23;44.31;101141.66;5080609;27;45308;-69
2022/05/22 06:50:14;;;;;;;;;1.75;0.50;;;;;22.32;43.51;101131.78;5079299;27;47091;-69
2022/05/22 06:52:39;;;;;;;;;3.75;1.75;;;;;22.44;43.08;101144.34;5077656;27;45335;-68
2022/05/22 06:55:06;;;;;;;;;1.25;1.25;;;;;22.54;42.98;101142.53;5079222;27;45463;-68
2022/05/22 06:57:32;;;;;;;;;3.00;3.00;;;;;22.61;43.44;101146.44;5078466;28;45260;-69
2022/05/22 06:59:58;;;;;;;;;2.75;1.75;;;;;22.66;41.87;101135.94;5079982;28;46132;-67
2022/05/22 07:02:27;;;;;;;;;2.25;2.25;;;;;22.67;42.37;101156.81;5080167;27;45331;-68
2022/05/22 07:04:55;;;;;;;;;3.00;3.00;;;;;22.63;42.04;101161.66;5079022;28;45308;-68
2022/05/22 07:07:21;;;;;;;;;2.25;2.25;;;;;22.57;42.37;101169.56;5078804;27;45537;-69
2022/05/22 07:09:47;;;;;;;;;3.00;2.00;;;;;22.52;42.62;101163.66;5078336;27;45460;-68
2022/05/22 07:12:14;;;;;;;;;2.50;1.50;;;;;22.50;43.09;101152.00;5078355;28;45429;-67
2022/05/22 07:14:39;;;;;;;;;2.75;2.75;;;;;22.46;42.36;101136.84;5078702;27;45482;-69
2022/05/22 07:17:07;;;;;;;;;1.00;1.00;;;;;22.43;43.05;101145.34;5079176;28;45656;-69
2022/05/22 07:19:37;;;;;;;;;1.00;1.00;;;;;22.44;43.34;101166.22;5079908;27;46478;-69
2022/05/22 07:22:04;;;;;;;;;1.75;1.75;;;;;22.38;43.14;101142.13;5079640;27;45291;-67
2022/05/22 07:24:29;;;;;;;;;3.25;2.75;;;;;22.34;43.01;101114.25;5079165;27;45347;-67
2022/05/22 07:26:54;;;;;;;;;2.25;2.25;;;;;22.41;43.37;101109.97;5079136;27;45593;-66
2022/05/22 07:29:20;;;;;;;;;3.50;2.00;;;;;22.36;43.13;101104.06;5079894;27;45878;-70
2022/05/22 07:31:45;;;;;;;;;2.50;2.50;;;;;22.40;43.10;101107.38;5079628;27;45357;-66
2022/05/22 07:34:11;;;;;;;;;3.00;3.00;;;;;22.36;43.21;101114.97;5079720;27;45318;-66
2022/05/22 07:36:36;;;;;;;;;2.25;2.25;;;;;22.35;43.04;101135.09;5079533;27;45319;-67
2022/05/22 07:39:03;;;;;;;;;1.75;1.75;;;;;22.33;43.38;101158.09;5079438;27;45875;-67
2022/05/22 07:41:28;;;;;;;;;3.00;2.00;;;;;22.32;42.98;101151.75;5068324;28;45451;-65
2022/05/22 07:43:54;;;;;;;;;1.75;1.75;;;;;22.31;42.91;101151.88;5079658;27;45539;-67
2022/05/22 07:46:19;;;;;;;;;2.75;1.75;;;;;22.27;43.17;101149.44;5079409;27;45423;-66
2022/05/22 07:48:45;;;;;;;;;2.50;2.50;;;;;22.16;43.29;101114.00;5078332;27;47532;-68
2022/05/22 07:51:12;;;;;;;;;2.00;2.00;;;;;22.27;43.62;101116.66;5079699;27;45296;-66
2022/05/22 07:53:38;;;;;;;;;2.00;2.00;;;;;22.22;43.44;101097.06;5078532;28;45297;-66
2022/05/22 07:56:03;;;;;;;;;2.75;2.75;;;;;22.31;44.06;101111.78;5077391;27;45533;-67
2022/05/22 07:58:30;;;;;;;;;2.75;2.75;;;;;22.33;43.65;101112.50;5079217;27;45824;-66
2022/05/22 08:00:57;;;;;;;;;3.75;3.75;;;;;22.37;43.52;101111.22;5079157;27;45488;-68
2022/05/22 08:03:23;;;;;;;;;1.25;1.25;;;;;22.36;43.22;101100.47;5079444;27;45361;-67
2022/05/22 08:05:50;;;;;;;;;2.00;2.00;;;;;22.34;43.79;101092.41;5077282;28;45525;-66
2022/05/22 08:08:16;;;;;;;;;3.00;3.00;;;;;22.44;43.67;101095.16;5078760;27;45323;-65
2022/05/22 08:10:42;;;;;;;;;3.00;3.00;;;;;22.48;42.89;101094.75;5078004;27;45544;-66
2022/05/22 08:13:10;;;;;;;;;3.00;3.00;;;;;22.53;43.32;101094.34;5078717;28;45345;-66
2022/05/22 08:15:37;;;;;;;;;1.75;1.75;;;;;22.58;43.22;101087.44;5078749;27;45338;-66
2022/05/22 08:18:03;;;;;;;;;3.00;3.00;;;;;22.55;42.93;101056.78;5078952;27;46504;-66
2022/05/22 08:20:33;;;;;;;;;2.25;2.25;;;;;22.65;42.50;101057.69;5078630;27;45405;-66
2022/05/22 08:23:01;;;;;;;;;3.00;1.75;;;;;22.65;42.77;101042.16;5078475;27;45323;-68
2022/05/22 08:25:28;;;;;;;;;2.00;2.00;;;;;22.71;42.93;101028.94;5077067;27;45406;-65
2022/05/22 08:27:54;;;;;;;;;3.00;3.00;;;;;22.74;43.00;101032.28;5077809;28;45692;-65
2022/05/22 08:30:21;;;;;;;;;3.25;1.75;;;;;22.75;42.71;101033.13;5077548;27;45484;-64
2022/05/22 08:32:48;;;;;;;;;3.50;2.75;;;;;22.78;42.69;101038.34;5072687;27;45438;-64
2022/05/22 08:35:20;;;;;;;;;2.75;2.75;;;;;22.77;43.17;101039.34;5066318;27;45403;-65
2022/05/22 08:37:46;;;;;;;;;2.50;2.50;;;;;22.86;42.96;101044.81;5077718;27;47168;-64
2022/05/22 08:40:15;;;;;;;;;4.25;2.75;;;;;22.95;42.94;101052.16;5074711;27;45824;-65
2022/05/22 08:42:43;;;;;;;;;3.25;1.50;;;;;23.00;43.07;101055.31;5075411;27;45410;-65
2022/05/22 08:45:38;;;;;;;;;2.25;2.25;;;;;23.08;42.21;101054.59;5075788;27;45440;-66
2022/05/22 08:48:15;;;;;;;;;4.00;3.00;;;;;23.11;42.34;101057.06;5076427;28;45428;-64
2022/05/22 08:50:44;;;;;;;;;1.75;1.75;;;;;23.12;41.53;101057.94;5075323;28;45416;-65
2022/05/22 08:53:25;;;;;;;;;3.25;3.25;;;;;23.12;42.35;101052.47;5076400;27;45385;-65
2022/05/22 08:59:15;;;;;;;;;2.75;2.75;;;;;23.21;42.29;101060.69;5076471;28;45457;-65
2022/05/22 09:02:10;;;;;;;;;1.50;1.50;;;;;23.25;42.21;101053.88;5078322;27;45417;-66
2022/05/22 09:04:43;;;;;;;;;2.75;1.75;;;;;23.31;42.42;101049.69;5068333;27;45494;-65
2022/05/22 09:07:26;;;;;;;;;2.25;2.25;;;;;23.36;42.18;101036.47;5078204;27;45489;-64
2022/05/22 09:10:05;;;;;;;;;2.25;2.00;;;;;23.37;42.10;101033.59;5078056;27;46193;-65
2022/05/22 09:12:49;;;;;;;;;2.00;2.00;;;;;23.41;41.55;101034.16;5077949;27;45333;-66
2022/05/22 09:15:41;;;;;;;;;2.50;2.50;;;;;23.44;41.79;101033.00;5078485;28;45517;-66
2022/05/22 09:18:26;;;;;;;;;2.50;2.50;;;;;23.47;41.45;101032.72;5076488;28;45277;-65
2022/05/22 09:21:12;;;;;;;;;2.75;2.75;;;;;23.50;41.67;101029.69;5080644;27;45322;-59
2022/05/22 09:24:07;;;;;;;;;2.00;2.00;;;;;23.60;41.39;101028.69;5081352;27;45315;-59
2022/05/22 09:26:59;;;;;;;;;4.00;4.00;;;;;23.66;40.99;101025.34;5075187;27;45654;-58
2022/05/22 09:29:46;;;;;;;;;2.25;2.25;;;;;23.74;40.90;101014.50;5070843;28;45805;-53
2022/05/22 09:32:26;;;;;;;;;5.00;3.00;;;;;23.82;40.56;101008.28;5080798;28;45341;-57
2022/05/22 09:35:19;;;;;;;;;3.00;3.00;;;;;23.88;40.42;101004.97;5081101;27;45309;-59
2022/05/22 09:38:03;;;;;;;;;2.00;2.00;;;;;23.85;40.66;100999.78;5081310;28;45380;-57
2022/05/22 09:40:49;;;;;;;;;2.00;2.00;;;;;23.89;40.88;100998.50;5080780;27;45374;-58
2022/05/22 09:43:23;;;;;;;;;2.50;2.50;;;;;23.92;40.53;100992.69;5080729;27;46429;-57
2022/05/22 09:46:04;;;;;;;;;2.00;2.00;;;;;23.88;40.80;100983.06;5080729;28;45338;-57
2022/05/22 09:48:42;;;;;;;;;2.00;2.00;;;;;23.88;40.66;100987.69;5080469;28;45254;-58
2022/05/22 09:51:38;;;;;;;;;2.75;2.75;;;;;23.86;40.78;100968.66;5094841;27;45811;-58
2022/05/22 09:54:18;;;;;;;;;5.00;3.00;;;;;23.86;40.17;100960.44;5080751;27;46207;-58
2022/05/22 09:56:43;;;;;;;;;5.25;3.50;;;;;23.86;40.09;100963.19;5081096;27;45351;-58
2022/05/22 09:59:36;;;;;;;;;4.00;4.00;;;;;23.85;40.67;100961.47;5080797;28;45279;-58
2022/05/22 10:02:15;;;;;;;;;2.00;2.00;;;;;23.87;40.06;100944.88;5081398;28;45324;-58
2022/05/22 10:05:17;;;;;;;;;3.50;2.25;;;;;23.82;40.51;100926.16;5079905;27;45647;-58
2022/05/22 10:08:08;;;;;;;;;4.75;4.00;;;;;23.86;39.65;100913.91;5078837;27;45365;-57
2022/05/22 10:10:59;;;;;;;;;3.75;2.75;;;;;23.82;39.35;100906.97;5075966;28;45296;-56
2022/05/22 10:13:39;;;;;;;;;3.50;3.25;;;;;23.85;38.52;100912.16;5080684;27;45407;-53
2022/05/22 10:16:16;;;;;;;;;2.00;2.00;;;;;23.85;39.01;100922.25;5078735;27;48194;-55
2022/05/22 10:18:42;;;;;;;;;3.00;3.00;;;;;23.86;39.29;100933.06;5079393;27;45617;-58
2022/05/22 10:21:25;;;;;;;;;3.00;3.00;;;;;23.88;39.39;100927.44;5080176;27;45329;-58
2022/05/22 10:24:12;;;;;;;;;2.75;2.00;;;;;23.92;39.57;100907.81;5075755;28;45517;-60
2022/05/22 10:26:49;;;;;;;;;3.00;3.00;;;;;23.95;39.11;100899.28;5073162;27;45296;-59
2022/05/22 10:29:41;;;;;;;;;2.75;2.75;;;;;23.94;39.19;100894.81;5077779;28;45449;-58
2022/05/22 10:32:22;;;;;;;;;2.00;2.00;;;;;23.92;39.33;100885.03;5080084;27;45366;-59
2022/05/22 10:35:14;;;;;;;;;1.25;0.50;;;;;23.80;39.63;100867.09;5080407;28;45430;-57
2022/05/22 10:37:55;;;;;;;;;3.25;2.75;;;;;23.73;40.28;100867.69;5080138;27;46998;-59
2022/05/22 10:40:23;;;;;;;;;3.00;3.00;;;;;23.65;39.75;100853.91;5080063;27;45427;-55
2022/05/22 10:42:52;;;;;;;;;2.50;2.50;;;;;23.60;40.04;100844.44;5080321;27;45475;-58
2022/05/22 10:45:50;;;;;;;;;2.50;2.50;;;;;23.54;40.08;100845.03;5080185;27;46107;-56
2022/05/22 10:48:23;;;;;;;;;3.00;3.00;;;;;23.54;40.41;100837.69;5056621;27;46208;-55
2022/05/22 10:51:08;;;;;;;;;2.00;2.00;;;;;23.50;40.23;100828.06;5080135;27;45397;-55
2022/05/22 10:53:49;;;;;;;;;3.00;3.00;;;;;23.47;40.59;100822.88;5081010;27;45376;-56
2022/05/22 10:56:14;;;;;;;;;3.25;3.00;;;;;23.50;40.58;100828.06;5095674;27;45425;-55
2022/05/22 10:58:56;;;;;;;;;2.75;2.75;;;;;23.52;40.69;100823.31;5079858;28;45464;-54
2022/05/22 11:01:26;;;;;;;;;1.75;1.75;;;;;23.50;40.82;100822.56;5079886;28;45248;-51
2022/05/22 11:04:13;;;;;;;;;2.75;2.75;;;;;23.51;41.11;100829.78;5080472;27;45347;-52
2022/05/22 11:06:51;;;;;;;;;3.75;3.75;;;;;23.49;41.01;100831.81;5078820;27;45858;-51
2022/05/22 11:09:27;;;;;;;;;5.25;3.00;;;;;23.46;40.72;100832.09;5094092;27;46814;-54
2022/05/22 11:12:13;;;;;;;;;5.00;3.00;;;;;23.40;41.49;100836.28;5077702;27;45372;-54
2022/05/22 11:14:40;;;;;;;;;5.25;4.00;;;;;23.34;42.07;100841.50;5078685;27;45514;-55
2022/05/22 11:17:10;;;;;;;;;4.75;4.50;;;;;23.28;43.52;100851.16;5079425;27;45260;-54
2022/05/22 11:19:40;;;;;;;;;4.25;3.00;;;;;23.22;44.25;100845.44;5079011;27;46727;-54
2022/05/22 11:22:18;;;;;;;;;2.50;2.50;;;;;23.20;44.67;100848.31;5079311;27;45395;-55
2022/05/22 11:25:02;;;;;;;;;2.75;2.75;;;;;23.20;45.37;100840.13;5079541;27;45382;-53
2022/05/22 11:27:45;;;;;;;;;7.25;5.50;;;;;23.17;44.76;100848.59;5066068;28;45630;-54
2022/05/22 11:30:29;;;;;;;;;5.00;4.00;;;;;23.14;45.02;100837.94;5077848;28;46162;-55
2022/05/22 11:33:28;;;;;;;;;29.25;21.25;;;;;23.21;45.28;100839.09;5079388;28;45264;-54
2022/05/22 11:36:14;;;;;;;;;45.00;33.00;;;;;23.28;46.10;100842.97;5079619;28;45354;-54
2022/05/22 11:38:48;;;;;;;;;4.75;4.75;;;;;23.33;45.35;100847.97;5079257;27;45346;-56
2022/05/22 11:41:32;;;;;;;;;6.25;6.25;;;;;23.38;46.03;100845.66;5078665;27;46298;-55
2022/05/22 11:44:06;;;;;;;;;5.25;3.75;;;;;23.40;44.62;100833.53;5079333;27;45223;-56
2022/05/22 11:46:39;;;;;;;;;9.50;8.50;;;;;23.41;44.70;100842.59;5079277;27;45283;-55
2022/05/22 11:49:07;;;;;;;;;8.25;8.25;;;;;23.39;44.59;100841.91;5079194;27;45325;-55
2022/05/22 11:51:56;;;;;;;;;4.75;3.25;;;;;23.41;44.52;100834.41;5078737;27;45733;-55
2022/05/22 11:54:53;;;;;;;;;4.75;4.25;;;;;23.43;45.33;100832.38;5078933;28;45335;-54
2022/05/22 11:57:36;;;;;;;;;3.00;3.00;;;;;23.43;44.49;100832.38;5079027;28;45331;-58
2022/05/22 12:00:08;;;;;;;;;6.25;4.00;;;;;23.47;44.24;100814.66;5078766;27;45394;-54
2022/05/22 12:03:08;;;;;;;;;5.75;5.75;;;;;23.50;43.74;100817.09;5078147;27;45427;-57
2022/05/22 12:06:12;;;;;;;;;7.50;4.00;;;;;23.54;43.94;100821.28;5078501;28;45330;-54
2022/05/22 12:09:00;;;;;;;;;3.00;3.00;;;;;23.54;44.00;100824.00;5083232;27;45346;-57
2022/05/22 12:11:39;;;;;;;;;4.00;4.00;;;;;23.53;43.86;100827.75;5078258;27;45267;-57
2022/05/22 12:14:22;;;;;;;;;2.75;2.75;;;;;23.59;43.74;100834.50;5078301;27;45389;-57
2022/05/22 12:16:58;;;;;;;;;6.00;4.00;;;;;23.63;44.63;100820.38;5077222;28;45295;-59
2022/05/22 12:19:46;;;;;;;;;4.75;4.75;;;;;23.69;43.38;100832.56;5078704;27;45409;-56
2022/05/22 12:22:20;;;;;;;;;3.75;3.25;;;;;23.73;44.00;100839.47;5078419;27;45468;-58
2022/05/22 12:24:57;;;;;;;;;4.25;3.75;;;;;23.71;43.38;100825.94;5077791;27;45434;-54
2022/05/22 12:27:32;;;;;;;;;3.75;3.75;;;;;23.71;43.06;100830.56;5078379;27;45345;-56
2022/05/22 12:30:00;;;;;;;;;6.50;5.50;;;;;23.74;42.47;100827.50;5077950;27;45387;-56
2022/05/22 12:32:28;;;;;;;;;5.25;2.25;;;;;23.76;42.47;100820.84;5078231;27;45455;-59
2022/05/22 12:34:57;;;;;;;;;4.00;4.00;;;;;23.80;42.96;100810.47;5078238;28;45380;-62
2022/05/22 12:37:42;;;;;;;;;3.75;2.00;;;;;23.88;43.17;100804.22;5078549;27;45425;-62
2022/05/22 12:40:19;;;;;;;;;3.75;3.75;;;;;23.90;42.29;100799.47;5078275;27;45377;-63
2022/05/22 12:42:49;;;;;;;;;3.50;3.50;;;;;23.92;42.01;100802.88;5078381;28;45326;-61
2022/05/22 12:45:15;;;;;;;;;3.75;3.25;;;;;23.95;41.43;100803.44;5078393;27;46474;-62
2022/05/22 12:47:47;;;;;;;;;3.00;3.00;;;;;24.00;41.79;100805.69;5078492;27;45316;-63
2022/05/22 12:50:32;;;;;;;;;2.25;2.25;;;;;24.01;42.02;100801.94;5077258;28;45421;-63
2022/05/22 12:52:57;;;;;;;;;3.75;3.75;;;;;23.91;41.98;100784.72;5079297;28;45243;-63
2022/05/22 12:55:30;;;;;;;;;3.00;3.00;;;;;23.93;41.58;100802.72;5081540;27;46355;-62
2022/05/22 12:57:59;;;;;;;;;4.75;3.50;;;;;23.95;41.97;100802.56;5081898;27;45494;-62
2022/05/22 13:00:40;;;;;;;;;2.75;2.75;;;;;23.92;41.84;100803.75;5082099;28;45318;-62
2022/05/22 13:03:15;;;;;;;;;3.75;3.75;;;;;23.93;42.12;100810.94;5082089;27;45256;-62
2022/05/22 13:05:42;;;;;;;;;3.00;3.00;;;;;23.93;41.59;100808.22;5081828;28;46629;-62
2022/05/22 13:08:23;;;;;;;;;7.75;3.00;;;;;23.90;41.68;100799.47;5081753;27;45378;-62
2022/05/22 13:10:55;;;;;;;;;4.25;3.75;;;;;23.91;41.48;100793.78;5081162;27;45337;-62
2022/05/22 13:13:27;;;;;;;;;5.00;4.00;;;;;23.95;41.40;100805.31;5076285;28;45550;-61
2022/05/22 13:16:04;;;;;;;;;3.25;3.25;;;;;23.95;41.90;100792.50;5079579;28;46233;-63
2022/05/22 13:18:31;;;;;;;;;4.00;4.00;;;;;23.98;41.50;100783.97;5081056;28;45334;-62
2022/05/22 13:21:03;;;;;;;;;4.25;3.25;;;;;24.01;41.69;100777.31;5081120;27;45335;-62
2022/05/22 13:23:36;;;;;;;;;3.00;3.00;;;;;24.04;41.21;100782.47;5081005;27;45511;-63
2022/05/22 13:26:17;;;;;;;;;4.50;3.75;;;;;24.06;41.02;100772.22;5080695;27;46150;-61
2022/05/22 13:28:53;;;;;;;;;3.25;3.25;;;;;24.05;41.07;100776.84;5080675;28;45388;-62
2022/05/22 13:31:36;;;;;;;;;3.00;3.00;;;;;24.06;41.53;100769.50;5081060;28;45510;-61
2022/05/22 13:34:15;;;;;;;;;4.00;4.00;;;;;23.99;41.55;100762.91;5080814;27;45367;-62
2022/05/22 13:36:56;;;;;;;;;3.75;3.50;;;;;24.04;41.49;100780.59;5080906;27;45276;-60
2022/05/22 13:40:16;;;;;;;;;4.75;4.75;;;;;24.06;41.72;100780.44;5080938;27;45433;-60
2022/05/22 13:43:05;;;;;;;;;4.50;3.50;;;;;24.03;41.44;100769.78;5048921;28;45569;-59
2022/05/22 13:45:45;;;;;;;;;5.50;5.50;;;;;24.00;42.53;100764.63;5070081;28;45381;-57
2022/05/22 13:48:22;;;;;;;;;4.00;4.00;;;;;23.95;42.21;100756.88;5081180;27;46146;-56
2022/05/22 13:54:24;;;;;;;;;4.00;2.50;;;;;23.87;42.99;100758.69;5081035;28;45408;-60
2022/05/22 13:56:56;;;;;;;;;5.50;4.00;;;;;23.87;43.21;100759.53;5068193;27;45473;-58
2022/05/22 13:59:26;;;;;;;;;3.00;3.00;;;;;23.87;43.32;100755.94;5081086;27;45356;-59
2022/05/22 14:01:53;;;;;;;;;3.00;3.00;;;;;23.85;42.72;100755.22;5080971;27;45472;-63
2022/05/22 14:04:20;;;;;;;;;5.25;4.25;;;;;23.80;42.58;100735.69;5080645;28;45337;-59
2022/05/22 14:06:49;;;;;;;;;3.50;2.75;;;;;23.88;42.47;100738.50;5081121;27;45290;-60
2022/05/22 14:09:29;;;;;;;;;4.00;3.50;;;;;23.91;42.34;100739.03;5080452;27;47050;-68
2022/05/22 14:11:55;;;;;;;;;2.25;2.25;;;;;23.89;41.94;100724.66;5080815;27;45452;-57
2022/05/22 14:14:32;;;;;;;;;6.00;3.00;;;;;23.93;42.39;100725.19;5080929;27;45317;-59
2022/05/22 14:17:02;;;;;;;;;4.00;4.00;;;;;23.90;42.79;100723.66;5081057;27;45660;-61
2022/05/22 14:19:35;;;;;;;;;4.00;4.00;;;;;23.95;42.77;100717.69;5080820;27;45364;-52
2022/05/22 14:22:16;;;;;;;;;5.50;4.75;;;;;24.02;42.23;100716.91;5080799;27;45455;-55
2022/05/22 14:24:54;;;;;;;;;3.75;3.75;;;;;24.17;42.02;100711.72;5080619;28;45330;-59
2022/05/22 14:27:22;;;;;;;;;4.00;3.50;;;;;24.39;42.16;100700.28;5080085;27;45405;-59
2022/05/22 14:29:48;;;;;;;;;4.00;4.00;;;;;24.80;41.31;100686.81;5080631;27;46253;-54
2022/05/22 14:32:20;;;;;;;;;4.75;4.75;;;;;25.36;40.52;100675.25;5080226;27;45335;-57
2022/05/22 14:34:46;;;;;;;;;3.50;3.50;;;;;26.05;38.89;100673.13;5080369;27;45264;-60
2022/05/22 14:37:13;;;;;;;;;3.50;3.50;;;;;26.77;38.82;100679.59;5066821;28;45347;-54
2022/05/22 14:39:53;;;;;;;;;5.25;4.50;;;;;27.53;37.65;100684.44;5080099;27;45311;-52
2022/05/22 14:42:21;;;;;;;;;4.00;4.00;;;;;28.12;36.33;100680.06;5078295;27;45378;-58
2022/05/22 14:44:48;;;;;;;;;3.25;3.25;;;;;28.32;35.30;100678.56;5078196;27;46477;-58
2022/05/22 14:47:24;;;;;;;;;4.50;4.00;;;;;28.21;35.73;100671.59;5068569;28;45489;-57
2022/05/22 14:49:54;;;;;;;;;4.00;4.00;;;;;27.99;35.61;100660.53;5079835;27;45295;-55
2022/05/22 14:52:33;;;;;;;;;3.75;3.75;;;;;27.79;35.47;100665.69;5079848;27;45381;-61
2022/05/22 14:55:06;;;;;;;;;4.75;3.50;;;;;27.62;35.67;100662.22;5079930;27;45257;-61
2022/05/22 14:57:43;;;;;;;;;2.75;2.75;;;;;27.43;35.83;100651.63;5079956;27;45427;-61
2022/05/22 15:00:14;;;;;;;;;4.00;3.00;;;;;27.31;36.63;100653.91;5080162;28;45587;-61
2022/05/22 15:03:03;;;;;;;;;3.25;3.25;;;;;27.14;36.53;100649.53;5079642;28;45363;-60
2022/05/22 15:05:37;;;;;;;;;5.00;3.75;;;;;26.95;36.34;100642.59;5080592;27;45418;-62
2022/05/22 15:08:08;;;;;;;;;3.75;3.75;;;;;26.90;36.67;100641.38;5080281;27;45398;-65
2022/05/22 15:10:37;;;;;;;;;3.25;3.00;;;;;26.92;36.40;100631.09;5079656;27;46199;-59
2022/05/22 15:13:16;;;;;;;;;4.00;4.00;;;;;26.92;37.19;100629.19;5079751;27;45360;-58
2022/05/22 15:15:41;;;;;;;;;3.00;3.00;;;;;26.83;36.25;100619.22;5079190;27;45240;-63
2022/05/22 15:21:15;;;;;;;;;3.00;3.00;;;;;26.77;36.32;100617.19;5069368;28;45292;-67
2022/05/22 15:26:25;;;;;;;;;4.00;2.75;;;;;26.67;35.93;100594.53;5072329;27;45318;-63
2022/05/22 15:28:51;;;;;;;;;5.00;2.75;;;;;26.61;36.80;100598.88;5079749;28;45372;-71
2022/05/22 15:31:34;;;;;;;;;3.00;3.00;;;;;26.51;36.86;100586.34;5079991;27;45481;-63
2022/05/22 15:34:32;;;;;;;;;5.25;3.75;;;;;26.46;37.00;100591.50;5080027;27;45389;-64
2022/05/22 15:37:10;;;;;;;;;6.25;2.00;;;;;26.41;36.90;100574.69;5056239;27;46291;-64
2022/05/22 15:39:35;;;;;;;;;2.50;1.50;;;;;26.45;37.07;100590.66;5079334;27;45394;-62
2022/05/22 15:42:09;;;;;;;;;2.00;2.00;;;;;26.39;36.92;100588.59;5079202;27;46116;-62
2022/05/22 15:44:40;;;;;;;;;4.25;3.00;;;;;26.37;37.12;100587.91;5079899;27;45257;-62
2022/05/22 15:47:05;;;;;;;;;3.00;3.00;;;;;26.44;37.09;100585.34;5079896;27;45373;-64
2022/05/22 15:52:24;;;;;;;;;2.50;2.50;;;;;26.89;36.60;100573.63;5079812;28;45391;-63
2022/05/22 15:54:50;;;;;;;;;3.50;2.00;;;;;27.11;36.03;100570.09;5079205;28;45355;-64
2022/05/22 15:57:16;;;;;;;;;3.00;2.00;;;;;27.25;34.99;100572.06;5079741;27;45395;-63
2022/05/22 15:59:41;;;;;;;;;2.00;2.00;;;;;27.36;34.91;100563.41;5079447;28;46488;-61
2022/05/22 16:02:30;;;;;;;;;2.50;2.50;;;;;27.55;35.14;100563.97;5079400;27;46227;-57
2022/05/22 16:04:55;;;;;;;;;1.50;1.50;;;;;27.87;35.44;100560.94;5079461;27;45345;-59
2022/05/22 16:07:21;;;;;;;;;3.00;3.00;;;;;28.15;34.10;100559.28;5078934;27;45332;-58
2022/05/22 16:09:47;;;;;;;;;2.50;2.50;;;;;28.27;34.54;100558.81;5079192;27;45430;-59
2022/05/22 16:12:12;;;;;;;;;5.00;4.00;;;;;28.36;34.03;100530.97;5078708;27;45619;-59
2022/05/22 16:14:39;;;;;;;;;2.00;2.00;;;;;28.49;33.46;100538.59;5079397;27;45273;-59
2022/05/22 16:17:07;;;;;;;;;1.50;1.50;;;;;28.36;33.29;100517.19;5079153;27;45323;-60
2022/05/22 16:19:37;;;;;;;;;1.00;1.00;;;;;28.46;33.37;100536.19;5078757;27;45385;-57
2022/05/22 16:22:03;;;;;;;;;2.00;2.00;;;;;28.35;33.69;100528.41;5078588;27;45417;-59
2022/05/22 16:24:28;;;;;;;;;4.00;2.25;;;;;28.31;33.54;100518.81;5078617;27;45529;-59
2022/05/22 16:26:56;;;;;;;;;4.00;3.00;;;;;28.34;33.81;100522.03;5078631;27;45685;-59
2022/05/22 16:29:21;;;;;;;;;4.00;2.25;;;;;28.39;33.79;100515.94;5079164;27;45422;-60
2022/05/22 16:31:47;;;;;;;;;5.00;3.25;;;;;28.36;33.12;100511.66;5078297;27;45990;-60
2022/05/22 16:34:19;;;;;;;;;2.50;1.00;;;;;28.20;33.17;100498.94;5078456;27;45375;-61
2022/05/22 16:36:44;;;;;;;;;4.00;3.00;;;;;28.12;33.73;100510.03;5086052;27;45341;-59
2022/05/22 16:39:10;;;;;;;;;3.00;2.00;;;;;27.99;33.53;100495.19;5081589;27;45345;-57
2022/05/22 16:41:38;;;;;;;;;2.00;2.00;;;;;27.88;34.30;100493.75;5081375;27;47028;-58